sensor_id;sensor_type;location;lat;lon;timestamp;P1;durP1;ratioP1;P2;durP2;ratioP2
59922;SDS011;45778;51.142;3.732;2023-02-01T00:01:59;24.70;;;5.05;;
59922;SDS011;45778;51.142;3.732;2023-02-01T00:04:25;16.10;;;5.38;;
59922;SDS011;45778;51.142;3.732;2023-02-01T00:06:50;21.35;;;4.80;;
59922;SDS011;45778;51.142;3.732;2023-02-01T00:09:16;20.75;;;5.10;;
59922;SDS011;45778;51.142;3.732;2023-02-01T00:11:42;19.15;;;5.55;;
59922;SDS011;45778;51.142;3.732;2023-02-01T00:14:07;21.13;;;5.55;;
59922;SDS011;45778;51.142;3.732;2023-02-01T00:16:33;27.73;;;5.30;;
59922;SDS011;45778;51.142;3.732;2023-02-01T00:19:17;20.05;;;4.47;;
59922;SDS011;45778;51.142;3.732;2023-02-01T00:21:43;19.90;;;5.03;;
59922;SDS011;45778;51.142;3.732;2023-02-01T00:24:10;22.70;;;4.75;;
59922;SDS011;45778;51.142;3.732;2023-02-01T00:26:41;24.75;;;4.10;;
59922;SDS011;45778;51.142;3.732;2023-02-01T00:29:15;22.10;;;3.58;;
59922;SDS011;45778;51.142;3.732;2023-02-01T00:31:43;18.58;;;4.35;;
59922;SDS011;45778;51.142;3.732;2023-02-01T00:34:13;19.95;;;4.85;;
59922;SDS011;45778;51.142;3.732;2023-02-01T00:36:41;15.20;;;4.25;;
59922;SDS011;45778;51.142;3.732;2023-02-01T00:39:07;16.58;;;3.67;;
59922;SDS011;45778;51.142;3.732;2023-02-01T00:41:33;18.25;;;3.80;;
59922;SDS011;45778;51.142;3.732;2023-02-01T00:43:59;19.63;;;4.93;;
59922;SDS011;45778;51.142;3.732;2023-02-01T00:46:26;22.77;;;4.22;;
59922;SDS011;45778;51.142;3.732;2023-02-01T00:48:52;14.77;;;3.60;;
59922;SDS011;45778;51.142;3.732;2023-02-01T00:51:22;19.77;;;4.38;;
59922;SDS011;45778;51.142;3.732;2023-02-01T00:53:51;26.50;;;3.97;;
59922;SDS011;45778;51.142;3.732;2023-02-01T00:56:18;23.92;;;3.80;;
59922;SDS011;45778;51.142;3.732;2023-02-01T00:58:44;20.85;;;4.22;;
59922;SDS011;45778;51.142;3.732;2023-02-01T01:01:12;18.38;;;4.22;;
59922;SDS011;45778;51.142;3.732;2023-02-01T01:03:42;16.95;;;4.10;;
59922;SDS011;45778;51.142;3.732;2023-02-01T01:06:11;14.25;;;3.42;;
59922;SDS011;45778;51.142;3.732;2023-02-01T01:08:38;23.63;;;3.80;;
59922;SDS011;45778;51.142;3.732;2023-02-01T01:11:06;18.08;;;3.60;;
59922;SDS011;45778;51.142;3.732;2023-02-01T01:13:36;22.75;;;4.63;;
59922;SDS011;45778;51.142;3.732;2023-02-01T01:16:03;15.43;;;3.90;;
59922;SDS011;45778;51.142;3.732;2023-02-01T01:18:31;23.90;;;4.03;;
59922;SDS011;45778;51.142;3.732;2023-02-01T01:20:57;19.08;;;5.90;;
59922;SDS011;45778;51.142;3.732;2023-02-01T01:23:23;15.68;;;3.25;;
59922;SDS011;45778;51.142;3.732;2023-02-01T01:25:49;24.83;;;4.82;;
59922;SDS011;45778;51.142;3.732;2023-02-01T01:28:15;14.48;;;3.97;;
59922;SDS011;45778;51.142;3.732;2023-02-01T01:30:40;21.60;;;3.65;;
59922;SDS011;45778;51.142;3.732;2023-02-01T01:33:06;20.30;;;4.25;;
59922;SDS011;45778;51.142;3.732;2023-02-01T01:35:32;20.55;;;3.53;;
59922;SDS011;45778;51.142;3.732;2023-02-01T01:37:58;16.58;;;3.03;;
59922;SDS011;45778;51.142;3.732;2023-02-01T01:40:25;16.27;;;2.97;;
59922;SDS011;45778;51.142;3.732;2023-02-01T01:42:52;21.27;;;3.10;;
59922;SDS011;45778;51.142;3.732;2023-02-01T01:45:30;16.52;;;3.15;;
59922;SDS011;45778;51.142;3.732;2023-02-01T01:47:59;15.65;;;2.90;;
59922;SDS011;45778;51.142;3.732;2023-02-01T01:50:44;20.80;;;3.22;;
59922;SDS011;45778;51.142;3.732;2023-02-01T01:53:15;19.63;;;3.58;;
59922;SDS011;45778;51.142;3.732;2023-02-01T01:55:44;11.43;;;3.00;;
59922;SDS011;45778;51.142;3.732;2023-02-01T01:58:18;17.23;;;2.83;;
59922;SDS011;45778;51.142;3.732;2023-02-01T02:00:46;19.48;;;3.60;;
59922;SDS011;45778;51.142;3.732;2023-02-01T02:03:45;17.73;;;3.45;;
59922;SDS011;45778;51.142;3.732;2023-02-01T02:06:11;15.93;;;3.45;;
59922;SDS011;45778;51.142;3.732;2023-02-01T02:08:58;22.45;;;3.13;;
59922;SDS011;45778;51.142;3.732;2023-02-01T02:11:24;23.30;;;3.45;;
59922;SDS011;45778;51.142;3.732;2023-02-01T02:13:50;24.38;;;2.97;;
59922;SDS011;45778;51.142;3.732;2023-02-01T02:27:13;23.05;;;2.90;;
59922;SDS011;45778;51.142;3.732;2023-02-01T02:41:44;16.40;;;2.65;;
59922;SDS011;45778;51.142;3.732;2023-02-01T02:44:38;20.27;;;3.80;;
59922;SDS011;45778;51.142;3.732;2023-02-01T02:47:45;17.05;;;3.13;;
59922;SDS011;45778;51.142;3.732;2023-02-01T02:53:47;18.30;;;2.95;;
59922;SDS011;45778;51.142;3.732;2023-02-01T02:56:39;21.90;;;2.80;;
59922;SDS011;45778;51.142;3.732;2023-02-01T02:59:25;22.92;;;4.18;;
59922;SDS011;45778;51.142;3.732;2023-02-01T03:02:11;16.08;;;4.07;;
59922;SDS011;45778;51.142;3.732;2023-02-01T03:04:58;16.85;;;3.42;;
59922;SDS011;45778;51.142;3.732;2023-02-01T03:10:30;23.45;;;3.70;;
59922;SDS011;45778;51.142;3.732;2023-02-01T03:13:18;22.33;;;4.40;;
59922;SDS011;45778;51.142;3.732;2023-02-01T03:18:42;11.57;;;3.92;;
59922;SDS011;45778;51.142;3.732;2023-02-01T03:21:17;17.13;;;3.13;;
59922;SDS011;45778;51.142;3.732;2023-02-01T03:23:49;17.20;;;2.97;;
59922;SDS011;45778;51.142;3.732;2023-02-01T03:26:17;14.63;;;3.08;;
59922;SDS011;45778;51.142;3.732;2023-02-01T03:28:49;15.50;;;3.42;;
59922;SDS011;45778;51.142;3.732;2023-02-01T03:31:21;19.40;;;4.25;;
59922;SDS011;45778;51.142;3.732;2023-02-01T03:33:48;17.15;;;3.28;;
59922;SDS011;45778;51.142;3.732;2023-02-01T03:36:25;20.80;;;3.67;;
59922;SDS011;45778;51.142;3.732;2023-02-01T03:39:00;18.70;;;3.72;;
59922;SDS011;45778;51.142;3.732;2023-02-01T03:41:35;15.35;;;3.85;;
59922;SDS011;45778;51.142;3.732;2023-02-01T03:46:55;25.05;;;3.65;;
59922;SDS011;45778;51.142;3.732;2023-02-01T03:51:58;22.35;;;3.95;;
59922;SDS011;45778;51.142;3.732;2023-02-01T03:54:25;23.83;;;4.10;;
59922;SDS011;45778;51.142;3.732;2023-02-01T03:56:52;18.48;;;3.13;;
59922;SDS011;45778;51.142;3.732;2023-02-01T03:59:20;17.77;;;3.97;;
59922;SDS011;45778;51.142;3.732;2023-02-01T04:01:46;26.70;;;3.63;;
59922;SDS011;45778;51.142;3.732;2023-02-01T04:04:12;23.48;;;3.92;;
59922;SDS011;45778;51.142;3.732;2023-02-01T04:06:45;21.80;;;4.05;;
59922;SDS011;45778;51.142;3.732;2023-02-01T04:09:11;20.27;;;3.35;;
59922;SDS011;45778;51.142;3.732;2023-02-01T04:11:37;19.30;;;3.42;;
59922;SDS011;45778;51.142;3.732;2023-02-01T04:14:03;17.40;;;4.05;;
59922;SDS011;45778;51.142;3.732;2023-02-01T04:16:30;18.95;;;3.58;;
59922;SDS011;45778;51.142;3.732;2023-02-01T04:18:56;21.67;;;3.83;;
59922;SDS011;45778;51.142;3.732;2023-02-01T04:21:23;17.23;;;3.42;;
59922;SDS011;45778;51.142;3.732;2023-02-01T04:23:49;18.35;;;3.63;;
59922;SDS011;45778;51.142;3.732;2023-02-01T04:26:15;24.73;;;3.92;;
59922;SDS011;45778;51.142;3.732;2023-02-01T04:28:41;17.30;;;4.35;;
59922;SDS011;45778;51.142;3.732;2023-02-01T04:31:07;16.35;;;4.07;;
59922;SDS011;45778;51.142;3.732;2023-02-01T04:33:33;19.90;;;3.80;;
59922;SDS011;45778;51.142;3.732;2023-02-01T04:35:59;22.17;;;4.15;;
59922;SDS011;45778;51.142;3.732;2023-02-01T04:38:25;24.50;;;4.13;;
59922;SDS011;45778;51.142;3.732;2023-02-01T04:40:50;14.45;;;3.40;;
59922;SDS011;45778;51.142;3.732;2023-02-01T04:43:16;22.67;;;3.72;;
59922;SDS011;45778;51.142;3.732;2023-02-01T04:45:46;19.27;;;4.15;;
59922;SDS011;45778;51.142;3.732;2023-02-01T04:48:15;20.27;;;3.38;;
59922;SDS011;45778;51.142;3.732;2023-02-01T04:50:43;21.80;;;3.30;;
59922;SDS011;45778;51.142;3.732;2023-02-01T04:53:11;19.75;;;3.65;;
59922;SDS011;45778;51.142;3.732;2023-02-01T04:55:36;18.88;;;3.90;;
59922;SDS011;45778;51.142;3.732;2023-02-01T04:58:02;19.33;;;3.90;;
59922;SDS011;45778;51.142;3.732;2023-02-01T05:00:28;23.58;;;5.10;;
59922;SDS011;45778;51.142;3.732;2023-02-01T05:02:53;18.17;;;3.63;;
59922;SDS011;45778;51.142;3.732;2023-02-01T05:05:19;29.73;;;3.67;;
59922;SDS011;45778;51.142;3.732;2023-02-01T05:07:45;19.33;;;3.47;;
59922;SDS011;45778;51.142;3.732;2023-02-01T05:10:11;26.75;;;4.07;;
59922;SDS011;45778;51.142;3.732;2023-02-01T05:12:37;22.67;;;3.75;;
59922;SDS011;45778;51.142;3.732;2023-02-01T05:15:21;17.55;;;4.22;;
59922;SDS011;45778;51.142;3.732;2023-02-01T05:17:47;15.90;;;5.07;;
59922;SDS011;45778;51.142;3.732;2023-02-01T05:20:13;20.00;;;4.18;;
59922;SDS011;45778;51.142;3.732;2023-02-01T05:22:38;19.63;;;4.40;;
59922;SDS011;45778;51.142;3.732;2023-02-01T05:25:05;23.17;;;5.53;;
59922;SDS011;45778;51.142;3.732;2023-02-01T05:27:31;21.70;;;3.83;;
59922;SDS011;45778;51.142;3.732;2023-02-01T05:29:57;24.02;;;4.13;;
59922;SDS011;45778;51.142;3.732;2023-02-01T05:32:23;20.58;;;4.18;;
59922;SDS011;45778;51.142;3.732;2023-02-01T05:34:48;27.20;;;3.70;;
59922;SDS011;45778;51.142;3.732;2023-02-01T05:37:14;19.58;;;3.75;;
59922;SDS011;45778;51.142;3.732;2023-02-01T05:39:40;20.55;;;4.50;;
59922;SDS011;45778;51.142;3.732;2023-02-01T05:42:06;22.42;;;3.95;;
59922;SDS011;45778;51.142;3.732;2023-02-01T05:44:31;18.15;;;4.55;;
59922;SDS011;45778;51.142;3.732;2023-02-01T05:46:57;20.88;;;4.20;;
59922;SDS011;45778;51.142;3.732;2023-02-01T05:49:23;21.45;;;3.60;;
59922;SDS011;45778;51.142;3.732;2023-02-01T05:51:48;20.63;;;4.47;;
59922;SDS011;45778;51.142;3.732;2023-02-01T05:54:14;23.05;;;4.15;;
59922;SDS011;45778;51.142;3.732;2023-02-01T05:56:40;14.75;;;3.70;;
59922;SDS011;45778;51.142;3.732;2023-02-01T05:59:05;13.32;;;3.78;;
59922;SDS011;45778;51.142;3.732;2023-02-01T06:01:31;21.00;;;5.05;;
59922;SDS011;45778;51.142;3.732;2023-02-01T06:03:57;17.92;;;3.25;;
59922;SDS011;45778;51.142;3.732;2023-02-01T06:06:23;24.20;;;3.53;;
59922;SDS011;45778;51.142;3.732;2023-02-01T06:08:48;16.27;;;3.97;;
59922;SDS011;45778;51.142;3.732;2023-02-01T06:11:14;17.02;;;3.65;;
59922;SDS011;45778;51.142;3.732;2023-02-01T06:13:40;16.55;;;3.50;;
59922;SDS011;45778;51.142;3.732;2023-02-01T06:16:05;22.25;;;4.00;;
59922;SDS011;45778;51.142;3.732;2023-02-01T06:18:32;20.83;;;4.28;;
59922;SDS011;45778;51.142;3.732;2023-02-01T06:20:59;22.50;;;3.97;;
59922;SDS011;45778;51.142;3.732;2023-02-01T06:23:25;10.60;;;3.42;;
59922;SDS011;45778;51.142;3.732;2023-02-01T06:25:59;18.05;;;3.95;;
59922;SDS011;45778;51.142;3.732;2023-02-01T06:28:30;22.77;;;6.07;;
59922;SDS011;45778;51.142;3.732;2023-02-01T06:30:57;16.52;;;3.53;;
59922;SDS011;45778;51.142;3.732;2023-02-01T06:33:23;16.52;;;3.35;;
59922;SDS011;45778;51.142;3.732;2023-02-01T06:35:56;19.00;;;4.38;;
59922;SDS011;45778;51.142;3.732;2023-02-01T06:38:23;18.58;;;4.38;;
59922;SDS011;45778;51.142;3.732;2023-02-01T06:40:53;24.08;;;4.32;;
59922;SDS011;45778;51.142;3.732;2023-02-01T06:43:20;24.13;;;4.40;;
59922;SDS011;45778;51.142;3.732;2023-02-01T06:45:46;21.67;;;4.07;;
59922;SDS011;45778;51.142;3.732;2023-02-01T06:48:12;20.45;;;4.40;;
59922;SDS011;45778;51.142;3.732;2023-02-01T06:50:37;17.60;;;4.25;;
59922;SDS011;45778;51.142;3.732;2023-02-01T06:53:03;23.20;;;3.85;;
59922;SDS011;45778;51.142;3.732;2023-02-01T06:55:29;17.27;;;3.78;;
59922;SDS011;45778;51.142;3.732;2023-02-01T06:57:55;21.70;;;4.28;;
59922;SDS011;45778;51.142;3.732;2023-02-01T07:00:21;22.17;;;4.13;;
59922;SDS011;45778;51.142;3.732;2023-02-01T07:02:48;32.13;;;5.18;;
59922;SDS011;45778;51.142;3.732;2023-02-01T07:05:14;21.35;;;4.78;;
59922;SDS011;45778;51.142;3.732;2023-02-01T07:07:40;19.42;;;4.13;;
59922;SDS011;45778;51.142;3.732;2023-02-01T07:10:06;20.00;;;4.40;;
59922;SDS011;45778;51.142;3.732;2023-02-01T07:12:32;15.90;;;3.78;;
59922;SDS011;45778;51.142;3.732;2023-02-01T07:14:57;16.70;;;4.45;;
59922;SDS011;45778;51.142;3.732;2023-02-01T07:17:23;23.42;;;4.13;;
59922;SDS011;45778;51.142;3.732;2023-02-01T07:19:49;26.35;;;6.30;;
59922;SDS011;45778;51.142;3.732;2023-02-01T07:22:18;14.65;;;4.10;;
59922;SDS011;45778;51.142;3.732;2023-02-01T07:24:43;17.17;;;4.03;;
59922;SDS011;45778;51.142;3.732;2023-02-01T07:27:09;22.42;;;3.90;;
59922;SDS011;45778;51.142;3.732;2023-02-01T07:29:35;16.25;;;3.55;;
59922;SDS011;45778;51.142;3.732;2023-02-01T07:32:00;33.80;;;6.65;;
59922;SDS011;45778;51.142;3.732;2023-02-01T07:34:27;19.80;;;3.78;;
59922;SDS011;45778;51.142;3.732;2023-02-01T07:36:53;20.35;;;4.78;;
59922;SDS011;45778;51.142;3.732;2023-02-01T07:39:19;27.20;;;5.80;;
59922;SDS011;45778;51.142;3.732;2023-02-01T07:41:45;18.90;;;3.78;;
59922;SDS011;45778;51.142;3.732;2023-02-01T07:44:12;23.83;;;4.93;;
59922;SDS011;45778;51.142;3.732;2023-02-01T07:46:38;16.52;;;4.20;;
59922;SDS011;45778;51.142;3.732;2023-02-01T07:49:04;25.75;;;5.35;;
59922;SDS011;45778;51.142;3.732;2023-02-01T07:51:30;27.42;;;4.43;;
59922;SDS011;45778;51.142;3.732;2023-02-01T07:53:56;27.88;;;4.97;;
59922;SDS011;45778;51.142;3.732;2023-02-01T07:56:22;20.88;;;3.60;;
59922;SDS011;45778;51.142;3.732;2023-02-01T07:58:52;18.30;;;3.70;;
59922;SDS011;45778;51.142;3.732;2023-02-01T08:01:21;16.70;;;2.73;;
59922;SDS011;45778;51.142;3.732;2023-02-01T08:03:52;14.40;;;3.15;;
59922;SDS011;45778;51.142;3.732;2023-02-01T08:06:19;16.85;;;3.25;;
59922;SDS011;45778;51.142;3.732;2023-02-01T08:08:47;23.35;;;5.85;;
59922;SDS011;45778;51.142;3.732;2023-02-01T08:11:16;12.85;;;2.95;;
59922;SDS011;45778;51.142;3.732;2023-02-01T08:13:42;21.17;;;3.33;;
59922;SDS011;45778;51.142;3.732;2023-02-01T08:16:09;20.65;;;3.60;;
59922;SDS011;45778;51.142;3.732;2023-02-01T08:18:36;16.55;;;3.08;;
59922;SDS011;45778;51.142;3.732;2023-02-01T08:21:10;18.17;;;3.30;;
59922;SDS011;45778;51.142;3.732;2023-02-01T08:23:50;12.93;;;3.00;;
59922;SDS011;45778;51.142;3.732;2023-02-01T08:26:23;13.27;;;2.90;;
59922;SDS011;45778;51.142;3.732;2023-02-01T08:28:55;13.82;;;3.03;;
59922;SDS011;45778;51.142;3.732;2023-02-01T08:31:22;13.98;;;3.20;;
59922;SDS011;45778;51.142;3.732;2023-02-01T08:33:53;18.55;;;3.85;;
59922;SDS011;45778;51.142;3.732;2023-02-01T08:36:20;23.77;;;4.55;;
59922;SDS011;45778;51.142;3.732;2023-02-01T08:38:47;17.20;;;4.20;;
59922;SDS011;45778;51.142;3.732;2023-02-01T08:41:14;22.92;;;4.40;;
59922;SDS011;45778;51.142;3.732;2023-02-01T08:43:42;14.50;;;3.55;;
59922;SDS011;45778;51.142;3.732;2023-02-01T08:46:09;18.33;;;3.70;;
59922;SDS011;45778;51.142;3.732;2023-02-01T08:48:35;18.70;;;3.50;;
59922;SDS011;45778;51.142;3.732;2023-02-01T08:51:02;24.73;;;3.83;;
59922;SDS011;45778;51.142;3.732;2023-02-01T08:53:28;18.25;;;3.25;;
59922;SDS011;45778;51.142;3.732;2023-02-01T08:55:54;16.90;;;3.22;;
59922;SDS011;45778;51.142;3.732;2023-02-01T08:58:20;21.77;;;3.08;;
59922;SDS011;45778;51.142;3.732;2023-02-01T09:00:47;20.30;;;3.20;;
59922;SDS011;45778;51.142;3.732;2023-02-01T09:03:13;20.80;;;3.35;;
59922;SDS011;45778;51.142;3.732;2023-02-01T09:05:39;20.48;;;2.95;;
59922;SDS011;45778;51.142;3.732;2023-02-01T09:08:05;13.98;;;2.50;;
59922;SDS011;45778;51.142;3.732;2023-02-01T09:10:31;19.58;;;2.95;;
59922;SDS011;45778;51.142;3.732;2023-02-01T09:12:57;16.73;;;3.63;;
59922;SDS011;45778;51.142;3.732;2023-02-01T09:15:23;18.92;;;2.85;;
59922;SDS011;45778;51.142;3.732;2023-02-01T09:17:49;18.73;;;4.85;;
59922;SDS011;45778;51.142;3.732;2023-02-01T09:20:14;19.63;;;4.20;;
59922;SDS011;45778;51.142;3.732;2023-02-01T09:22:40;17.30;;;3.78;;
59922;SDS011;45778;51.142;3.732;2023-02-01T09:25:07;13.23;;;2.38;;
59922;SDS011;45778;51.142;3.732;2023-02-01T09:27:33;17.08;;;3.03;;
59922;SDS011;45778;51.142;3.732;2023-02-01T09:30:00;10.55;;;2.20;;
59922;SDS011;45778;51.142;3.732;2023-02-01T09:32:25;17.20;;;2.97;;
59922;SDS011;45778;51.142;3.732;2023-02-01T09:34:51;13.75;;;2.78;;
59922;SDS011;45778;51.142;3.732;2023-02-01T09:37:18;13.82;;;2.75;;
59922;SDS011;45778;51.142;3.732;2023-02-01T09:39:44;20.42;;;2.92;;
59922;SDS011;45778;51.142;3.732;2023-02-01T09:42:26;15.20;;;3.80;;
59922;SDS011;45778;51.142;3.732;2023-02-01T09:45:11;16.23;;;3.28;;
59922;SDS011;45778;51.142;3.732;2023-02-01T09:48:00;12.10;;;2.45;;
59922;SDS011;45778;51.142;3.732;2023-02-01T09:50:52;21.13;;;3.55;;
59922;SDS011;45778;51.142;3.732;2023-02-01T09:56:30;16.52;;;2.50;;
59922;SDS011;45778;51.142;3.732;2023-02-01T10:01:38;11.05;;;2.47;;
59922;SDS011;45778;51.142;3.732;2023-02-01T10:04:08;10.20;;;1.85;;
59922;SDS011;45778;51.142;3.732;2023-02-01T10:20:57;15.65;;;4.00;;
59922;SDS011;45778;51.142;3.732;2023-02-01T10:28:52;12.02;;;2.13;;
59922;SDS011;45778;51.142;3.732;2023-02-01T10:31:25;9.48;;;1.83;;
59922;SDS011;45778;51.142;3.732;2023-02-01T10:34:16;14.45;;;1.98;;
59922;SDS011;45778;51.142;3.732;2023-02-01T10:36:55;18.05;;;2.50;;
59922;SDS011;45778;51.142;3.732;2023-02-01T10:39:25;10.73;;;2.85;;
59922;SDS011;45778;51.142;3.732;2023-02-01T10:41:51;13.63;;;1.92;;
59922;SDS011;45778;51.142;3.732;2023-02-01T10:44:18;17.08;;;2.10;;
59922;SDS011;45778;51.142;3.732;2023-02-01T10:46:47;11.77;;;2.25;;
59922;SDS011;45778;51.142;3.732;2023-02-01T10:49:18;15.07;;;2.40;;
59922;SDS011;45778;51.142;3.732;2023-02-01T10:52:14;12.73;;;2.58;;
59922;SDS011;45778;51.142;3.732;2023-02-01T10:54:48;7.18;;;1.63;;
59922;SDS011;45778;51.142;3.732;2023-02-01T10:57:24;10.93;;;2.28;;
59922;SDS011;45778;51.142;3.732;2023-02-01T10:59:54;10.95;;;2.20;;
59922;SDS011;45778;51.142;3.732;2023-02-01T11:02:25;7.03;;;1.92;;
59922;SDS011;45778;51.142;3.732;2023-02-01T11:05:03;13.32;;;2.08;;
59922;SDS011;45778;51.142;3.732;2023-02-01T11:07:34;19.98;;;2.78;;
59922;SDS011;45778;51.142;3.732;2023-02-01T11:10:01;13.23;;;2.15;;
59922;SDS011;45778;51.142;3.732;2023-02-01T11:15:19;12.18;;;1.40;;
59922;SDS011;45778;51.142;3.732;2023-02-01T11:17:44;11.18;;;2.95;;
59922;SDS011;45778;51.142;3.732;2023-02-01T11:20:16;16.83;;;2.58;;
59922;SDS011;45778;51.142;3.732;2023-02-01T11:22:47;10.07;;;2.60;;
59922;SDS011;45778;51.142;3.732;2023-02-01T11:25:18;12.38;;;1.75;;
59922;SDS011;45778;51.142;3.732;2023-02-01T11:27:44;14.73;;;1.73;;
59922;SDS011;45778;51.142;3.732;2023-02-01T11:30:14;7.22;;;1.23;;
59922;SDS011;45778;51.142;3.732;2023-02-01T11:32:48;11.57;;;1.42;;
59922;SDS011;45778;51.142;3.732;2023-02-01T11:35:16;9.63;;;1.40;;
59922;SDS011;45778;51.142;3.732;2023-02-01T11:37:44;11.02;;;1.80;;
59922;SDS011;45778;51.142;3.732;2023-02-01T11:42:56;11.57;;;1.98;;
59922;SDS011;45778;51.142;3.732;2023-02-01T11:47:54;11.50;;;2.40;;
59922;SDS011;45778;51.142;3.732;2023-02-01T11:59:45;6.50;;;1.17;;
59922;SDS011;45778;51.142;3.732;2023-02-01T12:18:38;17.20;;;2.42;;
59922;SDS011;45778;51.142;3.732;2023-02-01T12:24:24;7.38;;;0.90;;
59922;SDS011;45778;51.142;3.732;2023-02-01T12:30:18;11.57;;;1.38;;
59922;SDS011;45778;51.142;3.732;2023-02-01T12:43:43;7.57;;;1.48;;
59922;SDS011;45778;51.142;3.732;2023-02-01T12:46:28;6.28;;;1.45;;
59922;SDS011;45778;51.142;3.732;2023-02-01T12:49:11;9.25;;;1.55;;
59922;SDS011;45778;51.142;3.732;2023-02-01T12:52:06;9.63;;;1.95;;
59922;SDS011;45778;51.142;3.732;2023-02-01T12:54:53;15.30;;;2.13;;
59922;SDS011;45778;51.142;3.732;2023-02-01T12:57:26;10.48;;;1.58;;
59922;SDS011;45778;51.142;3.732;2023-02-01T13:02:30;9.25;;;1.80;;
59922;SDS011;45778;51.142;3.732;2023-02-01T13:05:11;12.40;;;1.67;;
59922;SDS011;45778;51.142;3.732;2023-02-01T13:07:39;7.28;;;1.70;;
59922;SDS011;45778;51.142;3.732;2023-02-01T13:10:17;9.40;;;1.90;;
59922;SDS011;45778;51.142;3.732;2023-02-01T13:12:57;9.20;;;1.77;;
59922;SDS011;45778;51.142;3.732;2023-02-01T13:15:36;11.05;;;1.85;;
59922;SDS011;45778;51.142;3.732;2023-02-01T13:18:06;9.85;;;1.58;;
59922;SDS011;45778;51.142;3.732;2023-02-01T13:23:24;6.63;;;1.40;;
59922;SDS011;45778;51.142;3.732;2023-02-01T13:25:55;9.77;;;1.73;;
59922;SDS011;45778;51.142;3.732;2023-02-01T13:33:53;9.60;;;1.98;;
59922;SDS011;45778;51.142;3.732;2023-02-01T13:36:59;10.38;;;2.17;;
59922;SDS011;45778;51.142;3.732;2023-02-01T13:39:50;7.38;;;1.40;;
59922;SDS011;45778;51.142;3.732;2023-02-01T13:42:58;8.18;;;1.80;;
59922;SDS011;45778;51.142;3.732;2023-02-01T13:45:31;9.95;;;1.85;;
59922;SDS011;45778;51.142;3.732;2023-02-01T13:48:02;14.77;;;2.17;;
59922;SDS011;45778;51.142;3.732;2023-02-01T13:50:31;18.48;;;2.92;;
59922;SDS011;45778;51.142;3.732;2023-02-01T13:53:13;13.43;;;2.22;;
59922;SDS011;45778;51.142;3.732;2023-02-01T13:55:45;11.18;;;1.85;;
59922;SDS011;45778;51.142;3.732;2023-02-01T14:00:45;14.25;;;2.10;;
59922;SDS011;45778;51.142;3.732;2023-02-01T14:03:14;8.38;;;1.63;;
59922;SDS011;45778;51.142;3.732;2023-02-01T14:11:07;10.07;;;2.63;;
59922;SDS011;45778;51.142;3.732;2023-02-01T14:19:22;6.90;;;1.58;;
59922;SDS011;45778;51.142;3.732;2023-02-01T14:21:55;12.47;;;2.43;;
59922;SDS011;45778;51.142;3.732;2023-02-01T14:27:00;13.40;;;2.38;;
59922;SDS011;45778;51.142;3.732;2023-02-01T14:29:43;16.38;;;3.17;;
59922;SDS011;45778;51.142;3.732;2023-02-01T14:32:44;9.48;;;1.85;;
59922;SDS011;45778;51.142;3.732;2023-02-01T14:35:18;10.45;;;2.75;;
59922;SDS011;45778;51.142;3.732;2023-02-01T14:37:59;13.43;;;2.25;;
59922;SDS011;45778;51.142;3.732;2023-02-01T14:40:29;11.43;;;2.53;;
59922;SDS011;45778;51.142;3.732;2023-02-01T14:42:55;11.75;;;2.63;;
59922;SDS011;45778;51.142;3.732;2023-02-01T14:50:17;23.73;;;3.45;;
59922;SDS011;45778;51.142;3.732;2023-02-01T14:58:09;20.08;;;3.10;;
59922;SDS011;45778;51.142;3.732;2023-02-01T15:01:23;21.60;;;3.08;;
59922;SDS011;45778;51.142;3.732;2023-02-01T15:09:02;12.43;;;2.28;;
59922;SDS011;45778;51.142;3.732;2023-02-01T15:11:32;14.98;;;2.22;;
59922;SDS011;45778;51.142;3.732;2023-02-01T15:14:19;15.38;;;2.47;;
59922;SDS011;45778;51.142;3.732;2023-02-01T15:16:45;13.50;;;2.58;;
59922;SDS011;45778;51.142;3.732;2023-02-01T15:19:18;15.35;;;2.28;;
59922;SDS011;45778;51.142;3.732;2023-02-01T15:21:49;14.27;;;2.67;;
59922;SDS011;45778;51.142;3.732;2023-02-01T15:24:27;16.15;;;2.75;;
59922;SDS011;45778;51.142;3.732;2023-02-01T15:26:54;17.00;;;2.45;;
59922;SDS011;45778;51.142;3.732;2023-02-01T15:29:26;18.13;;;3.03;;
59922;SDS011;45778;51.142;3.732;2023-02-01T15:31:57;13.23;;;3.33;;
59922;SDS011;45778;51.142;3.732;2023-02-01T15:34:37;19.77;;;3.45;;
59922;SDS011;45778;51.142;3.732;2023-02-01T15:37:14;14.10;;;2.65;;
59922;SDS011;45778;51.142;3.732;2023-02-01T15:42:34;22.23;;;3.08;;
59922;SDS011;45778;51.142;3.732;2023-02-01T15:45:18;17.80;;;3.80;;
59922;SDS011;45778;51.142;3.732;2023-02-01T15:47:52;18.27;;;4.10;;
59922;SDS011;45778;51.142;3.732;2023-02-01T15:50:20;11.75;;;2.95;;
59922;SDS011;45778;51.142;3.732;2023-02-01T15:52:46;14.60;;;2.83;;
59922;SDS011;45778;51.142;3.732;2023-02-01T15:55:23;33.72;;;2.67;;
59922;SDS011;45778;51.142;3.732;2023-02-01T15:58:06;13.10;;;3.00;;
59922;SDS011;45778;51.142;3.732;2023-02-01T16:00:43;17.10;;;2.97;;
59922;SDS011;45778;51.142;3.732;2023-02-01T16:06:05;23.00;;;3.88;;
59922;SDS011;45778;51.142;3.732;2023-02-01T16:08:33;17.75;;;3.40;;
59922;SDS011;45778;51.142;3.732;2023-02-01T16:11:46;13.73;;;2.25;;
59922;SDS011;45778;51.142;3.732;2023-02-01T16:14:05;16.30;;;3.10;;
59922;SDS011;45778;51.142;3.732;2023-02-01T16:16:30;13.95;;;3.25;;
59922;SDS011;45778;51.142;3.732;2023-02-01T16:18:56;20.33;;;3.53;;
59922;SDS011;45778;51.142;3.732;2023-02-01T16:21:22;15.20;;;3.67;;
59922;SDS011;45778;51.142;3.732;2023-02-01T16:23:49;12.52;;;2.58;;
59922;SDS011;45778;51.142;3.732;2023-02-01T16:26:18;11.77;;;2.65;;
59922;SDS011;45778;51.142;3.732;2023-02-01T16:28:44;13.93;;;3.55;;
59922;SDS011;45778;51.142;3.732;2023-02-01T16:31:14;19.20;;;3.80;;
59922;SDS011;45778;51.142;3.732;2023-02-01T16:33:50;14.05;;;3.17;;
59922;SDS011;45778;51.142;3.732;2023-02-01T16:36:16;17.05;;;2.67;;
59922;SDS011;45778;51.142;3.732;2023-02-01T16:38:43;17.67;;;3.85;;
59922;SDS011;45778;51.142;3.732;2023-02-01T16:41:15;15.07;;;3.35;;
59922;SDS011;45778;51.142;3.732;2023-02-01T16:43:42;18.73;;;3.30;;
59922;SDS011;45778;51.142;3.732;2023-02-01T16:46:12;19.00;;;3.42;;
59922;SDS011;45778;51.142;3.732;2023-02-01T16:48:40;10.57;;;3.15;;
59922;SDS011;45778;51.142;3.732;2023-02-01T16:51:12;17.10;;;3.15;;
59922;SDS011;45778;51.142;3.732;2023-02-01T16:53:40;20.48;;;3.20;;
59922;SDS011;45778;51.142;3.732;2023-02-01T16:56:12;21.73;;;3.33;;
59922;SDS011;45778;51.142;3.732;2023-02-01T17:01:08;17.65;;;3.47;;
59922;SDS011;45778;51.142;3.732;2023-02-01T17:03:37;18.42;;;2.97;;
59922;SDS011;45778;51.142;3.732;2023-02-01T17:06:03;16.10;;;4.03;;
59922;SDS011;45778;51.142;3.732;2023-02-01T17:08:31;18.75;;;3.33;;
59922;SDS011;45778;51.142;3.732;2023-02-01T17:10:58;18.58;;;4.32;;
59922;SDS011;45778;51.142;3.732;2023-02-01T17:13:24;13.77;;;3.83;;
59922;SDS011;45778;51.142;3.732;2023-02-01T17:15:54;19.30;;;3.90;;
59922;SDS011;45778;51.142;3.732;2023-02-01T17:18:23;14.88;;;3.17;;
59922;SDS011;45778;51.142;3.732;2023-02-01T17:20:50;20.25;;;3.22;;
59922;SDS011;45778;51.142;3.732;2023-02-01T17:23:17;18.35;;;3.33;;
59922;SDS011;45778;51.142;3.732;2023-02-01T17:25:44;19.02;;;4.10;;
59922;SDS011;45778;51.142;3.732;2023-02-01T17:28:11;23.67;;;4.03;;
59922;SDS011;45778;51.142;3.732;2023-02-01T17:30:37;13.82;;;4.10;;
59922;SDS011;45778;51.142;3.732;2023-02-01T17:33:03;15.20;;;4.07;;
59922;SDS011;45778;51.142;3.732;2023-02-01T17:35:41;19.77;;;4.47;;
59922;SDS011;45778;51.142;3.732;2023-02-01T17:38:09;16.58;;;3.38;;
59922;SDS011;45778;51.142;3.732;2023-02-01T17:40:36;20.85;;;4.22;;